createdAt,value
2022-11-24T00:01:26.567Z,99683.16
2022-11-24T00:03:58.078Z,99676.75
2022-11-24T00:06:25.389Z,99683.66
2022-11-24T00:08:52.276Z,99688.44
2022-11-24T00:11:21.241Z,99692.66
2022-11-24T00:13:48.611Z,99690.59
2022-11-24T00:16:18.320Z,99673.22
2022-11-24T00:18:47.089Z,99680.91
2022-11-24T00:21:15.321Z,99689.00
2022-11-24T00:23:41.844Z,99686.69
2022-11-24T00:26:14.645Z,99686.16
2022-11-24T00:28:42.568Z,99688.28
2022-11-24T00:31:18.107Z,99689.47
2022-11-24T00:33:46.879Z,99686.81
2022-11-24T00:36:13.712Z,99691.19
2022-11-24T00:38:40.188Z,99702.44
2022-11-24T00:41:06.941Z,99706.50
2022-11-24T00:43:33.779Z,99713.03
2022-11-24T00:46:00.388Z,99713.69
2022-11-24T00:48:27.262Z,99720.25
2022-11-24T00:50:59.244Z,99730.59
2022-11-24T00:53:26.304Z,99723.06
2022-11-24T00:55:53.205Z,99721.09
2022-11-24T00:58:19.858Z,99718.59
2022-11-24T01:00:46.515Z,99725.22
2022-11-24T01:03:17.455Z,99728.38
2022-11-24T01:05:43.960Z,99736.06
2022-11-24T01:08:10.563Z,99741.09
2022-11-24T01:10:37.798Z,99753.06
2022-11-24T01:13:04.807Z,99744.78
2022-11-24T01:15:31.536Z,99750.72
2022-11-24T01:17:58.332Z,99754.03
2022-11-24T01:20:24.925Z,99755.19
2022-11-24T01:22:51.366Z,99754.25
2022-11-24T01:25:18.050Z,99758.28
2022-11-24T01:27:44.723Z,99756.16
2022-11-24T01:30:11.565Z,99761.75
2022-11-24T01:32:38.130Z,99765.66
2022-11-24T01:35:05.668Z,99761.63
2022-11-24T01:37:32.529Z,99767.47
2022-11-24T01:39:59.223Z,99767.06
2022-11-24T01:42:25.997Z,99766.44
2022-11-24T01:45:30.962Z,99772.56
2022-11-24T01:47:57.948Z,99773.44
2022-11-24T01:50:24.840Z,99783.00
2022-11-24T01:52:56.503Z,99780.75
2022-11-24T01:55:28.478Z,99785.88
2022-11-24T01:58:09.961Z,99774.81
2022-11-24T02:00:38.411Z,99784.28
2022-11-24T02:03:04.921Z,99778.47
2022-11-24T02:05:45.985Z,99784.31
2022-11-24T02:08:28.024Z,99794.31
2022-11-24T02:10:54.968Z,99794.06
2022-11-24T02:13:22.381Z,99793.69
2022-11-24T02:15:49.045Z,99802.91
2022-11-24T02:18:15.587Z,99800.91
2022-11-24T02:20:42.195Z,99797.22
2022-11-24T02:23:14.462Z,99795.41
2022-11-24T02:26:02.473Z,99795.00
2022-11-24T02:28:30.739Z,99798.53
2022-11-24T02:30:59.798Z,99804.44
2022-11-24T02:33:27.022Z,99804.50
2022-11-24T02:35:53.579Z,99799.19
2022-11-24T02:38:29.549Z,99796.00
2022-11-24T02:40:56.369Z,99791.31
2022-11-24T02:43:23.577Z,99797.53
2022-11-24T02:45:50.204Z,99795.09
2022-11-24T02:48:16.977Z,99787.38
2022-11-24T02:50:43.542Z,99788.84
2022-11-24T02:53:10.057Z,99778.88
2022-11-24T02:55:36.657Z,99783.63
2022-11-24T02:58:03.546Z,99786.16
2022-11-24T03:00:30.154Z,99784.59
2022-11-24T03:02:56.778Z,99791.22
2022-11-24T03:05:23.763Z,99801.84
2022-11-24T03:07:50.313Z,99802.56
2022-11-24T03:10:17.220Z,99805.16
2022-11-24T03:12:43.760Z,99810.06
2022-11-24T03:15:10.586Z,99801.28
2022-11-24T03:17:37.203Z,99812.84
2022-11-24T03:20:05.208Z,99804.84
2022-11-24T03:22:32.234Z,99804.78
2022-11-24T03:24:59.214Z,99813.72
2022-11-24T03:27:25.828Z,99824.91
2022-11-24T03:29:52.288Z,99816.72
2022-11-24T03:32:18.886Z,99820.06
2022-11-24T03:34:45.418Z,99822.69
2022-11-24T03:37:11.947Z,99824.59
2022-11-24T03:39:38.460Z,99818.97
2022-11-24T03:42:05.149Z,99824.06
2022-11-24T03:44:31.880Z,99814.69
2022-11-24T03:46:58.556Z,99811.06
2022-11-24T03:49:25.033Z,99812.53
2022-11-24T03:51:51.538Z,99811.31
2022-11-24T03:54:18.058Z,99802.22
2022-11-24T03:56:44.569Z,99800.84
2022-11-24T03:59:11.042Z,99800.69
2022-11-24T04:01:37.528Z,99811.50
2022-11-24T04:04:04.233Z,99819.63
2022-11-24T04:06:31.197Z,99831.00
2022-11-24T04:08:57.716Z,99825.91
2022-11-24T04:11:42.867Z,99827.03
2022-11-24T04:14:13.517Z,99836.41
2022-11-24T04:16:40.589Z,99827.94
2022-11-24T04:19:07.452Z,99830.81
2022-11-24T04:21:33.903Z,99838.69
2022-11-24T04:24:00.378Z,99836.97
2022-11-24T04:26:26.863Z,99846.09
2022-11-24T04:28:53.360Z,99843.44
2022-11-24T04:31:19.878Z,99841.06
2022-11-24T04:33:46.519Z,99851.81
2022-11-24T04:36:13.017Z,99846.25
2022-11-24T04:39:19.669Z,99859.47
2022-11-24T04:41:26.009Z,99857.47
2022-11-24T04:43:52.817Z,99863.59
2022-11-24T04:46:19.348Z,99854.53
2022-11-24T04:48:45.836Z,99853.47
2022-11-24T04:51:14.129Z,99860.88
2022-11-24T04:53:40.773Z,99859.34
2022-11-24T04:56:07.909Z,99864.63
2022-11-24T04:58:34.573Z,99865.63
2022-11-24T05:01:01.070Z,99867.09
2022-11-24T05:03:27.601Z,99868.47
2022-11-24T05:05:54.058Z,99876.44
2022-11-24T05:08:20.594Z,99873.78
2022-11-24T05:10:47.109Z,99886.63
2022-11-24T05:13:14.491Z,99897.69
2022-11-24T05:15:41.893Z,99890.63
2022-11-24T05:18:11.565Z,99888.66
2022-11-24T05:20:38.372Z,99882.56
2022-11-24T05:23:06.457Z,99891.75
2022-11-24T05:25:34.282Z,99898.09
2022-11-24T05:28:06.469Z,99899.34
2022-11-24T05:30:33.005Z,99894.31
2022-11-24T05:33:05.616Z,99905.91
2022-11-24T05:35:32.367Z,99900.94
2022-11-24T05:37:59.039Z,99909.53
2022-11-24T05:40:25.502Z,99904.31
2022-11-24T05:42:52.030Z,99905.47
2022-11-24T05:45:21.098Z,99909.03
2022-11-24T05:47:49.398Z,99913.44
2022-11-24T05:50:18.204Z,99920.25
2022-11-24T05:52:44.709Z,99918.84
2022-11-24T05:55:14.914Z,99917.63
2022-11-24T05:57:42.088Z,99920.59
2022-11-24T06:00:10.023Z,99924.69
2022-11-24T06:02:36.659Z,99921.13
2022-11-24T06:05:03.416Z,99925.09
2022-11-24T06:07:30.010Z,99925.72
2022-11-24T06:09:56.648Z,99928.25
2022-11-24T06:12:23.246Z,99929.81
2022-11-24T06:14:49.710Z,99925.31
2022-11-24T06:17:16.211Z,99927.59
2022-11-24T06:19:45.483Z,99932.53
2022-11-24T06:22:12.574Z,99934.44
2022-11-24T06:24:39.093Z,99937.97
2022-11-24T06:27:05.649Z,99941.97
2022-11-24T06:29:32.252Z,99947.16
2022-11-24T06:31:58.833Z,99948.97
2022-11-24T06:34:25.469Z,99954.84
2022-11-24T06:36:51.977Z,99947.66
2022-11-24T06:39:18.496Z,99956.81
2022-11-24T06:41:45.008Z,99960.41
2022-11-24T06:44:11.591Z,99957.50
2022-11-24T06:46:38.138Z,99958.34
2022-11-24T06:49:04.662Z,99958.38
2022-11-24T06:51:31.208Z,99958.88
2022-11-24T06:53:57.760Z,99962.84
2022-11-24T06:56:24.340Z,99961.94
2022-11-24T06:58:52.545Z,99953.25
2022-11-24T07:01:26.950Z,99958.25
2022-11-24T07:03:55.206Z,99970.63
2022-11-24T07:06:23.649Z,99970.22
2022-11-24T07:08:50.823Z,99976.09
2022-11-24T07:11:20.275Z,99976.41
2022-11-24T07:13:48.055Z,99977.53
2022-11-24T07:16:16.463Z,99977.34
2022-11-24T07:18:44.379Z,99976.72
2022-11-24T07:21:11.563Z,99979.25
2022-11-24T07:23:38.360Z,99985.16
2022-11-24T07:26:07.055Z,99991.44
2022-11-24T07:28:34.936Z,99989.59
2022-11-24T07:31:06.798Z,99994.72
2022-11-24T07:33:33.389Z,100002.41
2022-11-24T07:36:00.723Z,100002.31
2022-11-24T07:38:29.418Z,99996.66
2022-11-24T07:41:03.079Z,100008.34
2022-11-24T07:43:31.861Z,100012.16
2022-11-24T07:45:58.644Z,100014.06
2022-11-24T07:48:25.193Z,100020.03
2022-11-24T07:50:55.686Z,100023.19
2022-11-24T07:53:22.930Z,100020.47
2022-11-24T07:55:55.502Z,100025.19
2022-11-24T07:58:22.667Z,100013.94
2022-11-24T08:00:49.329Z,100013.47
2022-11-24T08:03:16.306Z,100025.16
2022-11-24T08:06:07.660Z,100024.91
2022-11-24T08:08:33.134Z,100034.63
2022-11-24T08:11:11.804Z,100033.22
2022-11-24T08:13:39.055Z,100035.88
2022-11-24T08:16:07.754Z,100045.09
2022-11-24T08:18:35.638Z,100047.16
2022-11-24T08:21:03.225Z,100048.22
2022-11-24T08:23:30.134Z,100044.47
2022-11-24T08:25:57.355Z,100050.13
2022-11-24T08:28:24.254Z,100049.78
2022-11-24T08:30:51.207Z,100058.31
2022-11-24T08:33:17.718Z,100050.34
2022-11-24T08:35:44.277Z,100051.72
2022-11-24T08:38:10.837Z,100054.59
2022-11-24T08:40:37.492Z,100058.06
2022-11-24T08:43:04.034Z,100063.44
2022-11-24T08:45:30.931Z,100066.00
2022-11-24T08:47:57.803Z,100074.63
2022-11-24T08:50:25.289Z,100066.31
2022-11-24T08:52:53.602Z,100070.59
2022-11-24T08:55:20.517Z,100072.44
2022-11-24T08:57:47.124Z,100074.09
2022-11-24T09:00:14.217Z,100075.25
2022-11-24T09:02:42.479Z,100082.19
2022-11-24T09:05:28.692Z,100082.75
2022-11-24T09:07:55.622Z,100072.13
2022-11-24T09:10:22.216Z,100073.69
2022-11-24T09:12:48.891Z,100080.03
2022-11-24T09:15:16.474Z,100083.47
2022-11-24T09:17:43.593Z,100088.75
2022-11-24T09:20:10.232Z,100089.91
2022-11-24T09:22:38.105Z,100105.84
2022-11-24T09:25:06.707Z,100092.66
2022-11-24T09:27:33.659Z,100106.81
2022-11-24T09:30:00.273Z,100103.03
2022-11-24T09:32:29.172Z,100100.28
2022-11-24T09:34:55.684Z,100106.47
2022-11-24T09:37:22.324Z,100116.63
2022-11-24T09:39:48.933Z,100120.75
2022-11-24T09:42:42.655Z,100117.94
2022-11-24T09:45:15.316Z,100118.72
2022-11-24T09:47:46.790Z,100117.66
2022-11-24T09:50:25.638Z,100128.03
2022-11-24T09:53:03.704Z,100128.97
2022-11-24T09:55:47.102Z,100131.50
2022-11-24T09:58:28.938Z,100129.81
2022-11-24T10:00:56.803Z,100136.34
2022-11-24T10:03:32.717Z,100135.69
2022-11-24T10:06:04.062Z,100129.13
2022-11-24T10:08:48.000Z,100134.59
2022-11-24T10:11:31.943Z,100139.47
2022-11-24T10:14:16.213Z,100141.47
2022-11-24T10:17:31.846Z,100153.19
2022-11-24T10:20:27.129Z,100148.81
2022-11-24T10:22:53.544Z,100154.31
2022-11-24T10:25:35.627Z,100157.81
2022-11-24T10:28:04.761Z,100149.41
2022-11-24T10:30:31.384Z,100159.44
2022-11-24T10:33:27.114Z,100157.75
2022-11-24T10:36:03.248Z,100158.72
2022-11-24T10:38:52.622Z,100162.16
2022-11-24T10:41:46.820Z,100168.31
2022-11-24T10:44:14.499Z,100177.44
2022-11-24T10:46:41.201Z,100169.91
2022-11-24T10:49:13.504Z,100179.22
2022-11-24T10:52:25.701Z,100171.91
2022-11-24T10:55:04.827Z,100182.56
2022-11-24T10:57:36.964Z,100181.34
2022-11-24T11:00:26.657Z,100170.50
2022-11-24T11:03:12.283Z,100178.63
2022-11-24T11:05:44.502Z,100176.66
2022-11-24T11:08:14.258Z,100181.25
2022-11-24T11:10:42.772Z,100175.09
2022-11-24T11:13:23.935Z,100185.13
2022-11-24T11:15:50.830Z,100193.66
2022-11-24T11:18:18.643Z,100186.03
2022-11-24T11:20:55.514Z,100192.53
2022-11-24T11:23:32.298Z,100188.97
2022-11-24T11:26:19.080Z,100191.63
2022-11-24T11:34:45.469Z,100195.19
2022-11-24T11:37:14.376Z,100199.16
2022-11-24T11:39:50.302Z,100203.72
2022-11-24T11:43:01.834Z,100207.69
2022-11-24T11:45:33.613Z,100201.00
2022-11-24T11:48:03.341Z,100198.78
2022-11-24T11:51:15.025Z,100224.22
2022-11-24T11:53:44.623Z,100218.19
2022-11-24T11:56:14.665Z,100209.81
2022-11-24T11:59:14.230Z,100209.31
2022-11-24T12:01:55.984Z,100219.19
2022-11-24T12:04:40.599Z,100225.16
2022-11-24T12:07:14.633Z,100208.06
2022-11-24T12:10:19.734Z,100218.41
2022-11-24T12:12:55.468Z,100223.84
2022-11-24T12:15:31.376Z,100221.81
2022-11-24T12:18:33.499Z,100226.78
2022-11-24T12:21:15.128Z,100229.06
2022-11-24T12:24:08.124Z,100231.81
2022-11-24T12:26:52.335Z,100233.31
2022-11-24T12:29:48.265Z,100236.38
2022-11-24T12:33:05.365Z,100240.66
2022-11-24T12:35:52.796Z,100233.09
2022-11-24T12:38:19.288Z,100243.41
2022-11-24T12:41:18.276Z,100242.22
2022-11-24T12:43:51.883Z,100245.47
2022-11-24T12:46:56.270Z,100244.38
2022-11-24T12:49:33.909Z,100239.38
2022-11-24T12:52:23.999Z,100236.25
2022-11-24T12:54:50.505Z,100243.06
2022-11-24T12:57:58.909Z,100239.03
2022-11-24T13:00:36.789Z,100235.50
2022-11-24T13:03:37.060Z,100247.00
2022-11-24T13:06:36.880Z,100251.56
2022-11-24T13:09:11.608Z,100246.59
2022-11-24T13:11:43.674Z,100246.59
2022-11-24T13:14:30.450Z,100256.09
2022-11-24T13:19:49.741Z,100249.34
2022-11-24T13:22:24.193Z,100255.94
2022-11-24T13:25:14.558Z,100264.63
2022-11-24T13:27:44.301Z,100272.28
2022-11-24T13:30:35.705Z,100277.56
2022-11-24T13:33:27.053Z,100282.56
2022-11-24T13:36:03.077Z,100276.00
2022-11-24T13:38:52.810Z,100289.44
2022-11-24T13:41:31.487Z,100283.31
2022-11-24T13:44:16.302Z,100279.69
2022-11-24T13:47:04.749Z,100282.13
2022-11-24T13:49:42.585Z,100286.72
2022-11-24T13:52:42.709Z,100285.06
2022-11-24T13:55:12.257Z,100287.81
2022-11-24T13:57:43.848Z,100283.56
2022-11-24T14:00:22.660Z,100286.69
2022-11-24T14:02:51.693Z,100285.97
2022-11-24T14:05:22.519Z,100289.78
2022-11-24T14:07:52.122Z,100282.50
2022-11-24T14:10:24.478Z,100280.25
2022-11-24T14:13:26.839Z,100282.06
2022-11-24T14:16:03.031Z,100274.91
2022-11-24T14:18:31.479Z,100272.28
2022-11-24T14:21:00.170Z,100274.56
2022-11-24T14:23:27.026Z,100273.81
2022-11-24T14:25:54.019Z,100270.38
2022-11-24T14:28:28.754Z,100275.28
2022-11-24T14:31:09.080Z,100280.63
2022-11-24T14:33:36.243Z,100279.75
2022-11-24T14:36:02.857Z,100288.97
2022-11-24T14:38:29.362Z,100283.94
2022-11-24T14:40:56.091Z,100289.59
2022-11-24T14:43:29.056Z,100281.19
2022-11-24T14:45:58.190Z,100282.78
2022-11-24T14:48:49.440Z,100284.97
2022-11-24T14:51:23.746Z,100285.22
2022-11-24T14:53:53.287Z,100285.94
2022-11-24T14:56:32.784Z,100291.88
2022-11-24T14:58:59.550Z,100292.22
2022-11-24T15:01:29.452Z,100289.97
2022-11-24T15:04:32.428Z,100292.09
2022-11-24T15:07:14.012Z,100300.13
2022-11-24T15:09:53.093Z,100293.97
2022-11-24T15:12:34.786Z,100296.84
2022-11-24T15:15:08.779Z,100300.00
2022-11-24T15:17:35.418Z,100306.84
2022-11-24T15:20:17.120Z,100309.88
2022-11-24T15:22:44.646Z,100313.44
2022-11-24T15:25:40.568Z,100313.97
2022-11-24T15:28:08.370Z,100312.63
2022-11-24T15:30:36.948Z,100310.53
2022-11-24T15:33:11.135Z,100311.75
2022-11-24T15:35:37.643Z,100319.25
2022-11-24T15:38:04.199Z,100320.81
2022-11-24T15:40:31.136Z,100313.03
2022-11-24T15:43:01.942Z,100328.13
2022-11-24T15:45:33.981Z,100323.31
2022-11-24T15:48:00.560Z,100328.41
2022-11-24T15:50:27.169Z,100330.81
2022-11-24T15:52:53.676Z,100341.59
2022-11-24T15:55:22.354Z,100345.81
2022-11-24T15:57:49.669Z,100339.41
2022-11-24T16:00:18.593Z,100356.22
2022-11-24T16:02:45.219Z,100351.56
2022-11-24T16:05:12.973Z,100350.78
2022-11-24T16:07:39.943Z,100356.25
2022-11-24T16:10:16.443Z,100360.00
2022-11-24T16:12:43.581Z,100362.34
2022-11-24T16:15:10.488Z,100360.78
2022-11-24T16:17:36.990Z,100366.56
2022-11-24T16:20:03.735Z,100362.78
2022-11-24T16:22:30.249Z,100367.75
2022-11-24T16:24:56.762Z,100367.66
2022-11-24T16:27:23.221Z,100366.78
2022-11-24T16:29:49.814Z,100378.16
2022-11-24T16:32:16.362Z,100383.44
2022-11-24T16:34:42.864Z,100377.09
2022-11-24T16:37:09.833Z,100382.88
2022-11-24T16:39:36.381Z,100379.75
2022-11-24T16:42:03.574Z,100379.56
2022-11-24T16:44:30.123Z,100375.50
2022-11-24T16:46:57.046Z,100377.81
2022-11-24T16:49:23.660Z,100376.50
2022-11-24T16:51:50.148Z,100388.75
2022-11-24T16:54:16.670Z,100388.72
2022-11-24T16:56:43.264Z,100389.34
2022-11-24T16:59:09.827Z,100385.56
2022-11-24T17:01:37.142Z,100384.44
2022-11-24T17:04:07.023Z,100377.91
2022-11-24T17:06:36.068Z,100381.22
2022-11-24T17:09:02.913Z,100383.28
2022-11-24T17:11:29.765Z,100386.06
2022-11-24T17:13:58.249Z,100387.00
2022-11-24T17:16:26.169Z,100399.97
2022-11-24T17:18:53.118Z,100393.44
2022-11-24T17:21:21.994Z,100394.28
2022-11-24T17:23:53.065Z,100390.41
2022-11-24T17:26:19.603Z,100394.19
2022-11-24T17:28:46.191Z,100393.97
2022-11-24T17:31:25.011Z,100402.31
2022-11-24T17:33:54.525Z,100402.09
2022-11-24T17:36:21.594Z,100402.34
2022-11-24T17:38:51.142Z,100401.78
2022-11-24T17:41:18.251Z,100401.53
2022-11-24T17:43:51.539Z,100406.78
2022-11-24T17:46:18.570Z,100410.53
2022-11-24T17:48:46.537Z,100411.81
2022-11-24T17:51:15.328Z,100411.69
2022-11-24T17:53:43.959Z,100410.75
2022-11-24T17:56:13.617Z,100416.97
2022-11-24T17:58:43.140Z,100421.63
2022-11-24T18:01:11.496Z,100417.53
2022-11-24T18:03:39.251Z,100419.47
2022-11-24T18:06:11.049Z,100429.09
2022-11-24T18:08:39.085Z,100432.81
2022-11-24T18:11:07.139Z,100432.81
2022-11-24T18:13:59.974Z,100430.16
2022-11-24T18:16:29.875Z,100437.78
2022-11-24T18:19:07.671Z,100436.03
2022-11-24T18:21:34.819Z,100437.06
2022-11-24T18:24:01.545Z,100436.31
2022-11-24T18:26:28.210Z,100438.84
2022-11-24T18:28:54.774Z,100437.25
2022-11-24T18:31:22.309Z,100430.47
2022-11-24T18:33:49.136Z,100434.34
2022-11-24T18:36:18.401Z,100435.72
2022-11-24T18:38:45.618Z,100435.19
2022-11-24T18:41:14.244Z,100442.66
2022-11-24T18:43:41.036Z,100444.50
2022-11-24T18:46:10.453Z,100443.78
2022-11-24T18:48:37.109Z,100437.47
2022-11-24T18:51:04.045Z,100429.16
2022-11-24T18:53:31.025Z,100433.47
2022-11-24T18:56:06.473Z,100432.47
2022-11-24T18:58:35.001Z,100433.66
2022-11-24T19:01:16.295Z,100429.47
2022-11-24T19:03:49.308Z,100436.88
2022-11-24T19:06:17.692Z,100439.13
2022-11-24T19:08:45.123Z,100430.44
2022-11-24T19:11:19.170Z,100427.09
2022-11-24T19:13:47.589Z,100432.91
2022-11-24T19:16:15.559Z,100434.78
2022-11-24T19:18:42.583Z,100422.22
2022-11-24T19:21:09.555Z,100431.13
2022-11-24T19:23:36.180Z,100431.09
2022-11-24T19:26:03.905Z,100421.75
2022-11-24T19:28:30.880Z,100420.78
2022-11-24T19:31:05.819Z,100422.38
2022-11-24T19:33:33.211Z,100424.53
2022-11-24T19:36:15.116Z,100429.88
2022-11-24T19:38:43.145Z,100419.25
2022-11-24T19:41:12.376Z,100427.84
2022-11-24T19:43:39.624Z,100427.59
2022-11-24T19:46:09.011Z,100423.34
2022-11-24T19:48:40.760Z,100425.41
2022-11-24T19:51:10.359Z,100439.50
2022-11-24T19:53:37.883Z,100431.03
2022-11-24T19:56:12.676Z,100436.06
2022-11-24T19:58:40.231Z,100431.66
2022-11-24T20:01:15.468Z,100436.13
2022-11-24T20:03:44.371Z,100433.66
2022-11-24T20:06:13.245Z,100435.06
2022-11-24T20:08:41.221Z,100434.22
2022-11-24T20:11:12.924Z,100432.84
2022-11-24T20:13:41.248Z,100440.22
2022-11-24T20:16:10.596Z,100435.03
2022-11-24T20:18:42.301Z,100435.06
2022-11-24T20:21:17.079Z,100437.56
2022-11-24T20:23:45.617Z,100443.22
2022-11-24T20:26:19.503Z,100441.16
2022-11-24T20:28:47.016Z,100439.88
2022-11-24T20:31:16.540Z,100445.72
2022-11-24T20:33:43.413Z,100443.16
2022-11-24T20:36:12.633Z,100443.34
2022-11-24T20:38:40.606Z,100447.75
2022-11-24T20:41:13.636Z,100446.63
2022-11-24T20:43:41.272Z,100442.19
2022-11-24T20:46:17.881Z,100446.91
2022-11-24T20:48:44.835Z,100450.50
2022-11-24T20:51:14.129Z,100447.50
2022-11-24T20:53:41.198Z,100450.38
2022-11-24T20:56:11.486Z,100448.69
2022-11-24T20:58:38.801Z,100443.41
2022-11-24T21:01:18.448Z,100440.22
2022-11-24T21:03:46.770Z,100449.75
2022-11-24T21:06:14.582Z,100444.56
2022-11-24T21:08:42.377Z,100427.69
2022-11-24T21:11:11.857Z,100422.78
2022-11-24T21:13:40.504Z,100434.00
2022-11-24T21:16:22.918Z,100430.50
2022-11-24T21:18:51.734Z,100442.72
2022-11-24T21:21:22.630Z,100442.94
2022-11-24T21:23:50.068Z,100446.28
2022-11-24T21:26:17.784Z,100445.84
2022-11-24T21:28:46.766Z,100455.31
2022-11-24T21:31:19.236Z,100454.63
2022-11-24T21:33:48.179Z,100457.59
2022-11-24T21:36:17.734Z,100462.06
2022-11-24T21:38:49.073Z,100461.59
2022-11-24T21:41:15.725Z,100458.78
2022-11-24T21:43:42.283Z,100462.94
2022-11-24T21:46:11.342Z,100459.34
2022-11-24T21:48:39.324Z,100455.19
2022-11-24T21:51:08.456Z,100464.16
2022-11-24T21:53:36.820Z,100471.72
2022-11-24T21:56:06.249Z,100462.69
2022-11-24T21:58:33.550Z,100455.91
2022-11-24T22:01:05.069Z,100460.22
2022-11-24T22:03:31.643Z,100465.00
2022-11-24T22:06:00.310Z,100461.44
2022-11-24T22:08:28.834Z,100455.03
2022-11-24T22:11:13.806Z,100461.75
2022-11-24T22:13:41.725Z,100457.63
2022-11-24T22:16:14.617Z,100461.47
2022-11-24T22:18:43.009Z,100454.19
2022-11-24T22:21:15.525Z,100457.63
2022-11-24T22:23:42.882Z,100461.66
2022-11-24T22:26:15.661Z,100459.22
2022-11-24T22:28:43.727Z,100459.41
2022-11-24T22:31:16.499Z,100461.25
2022-11-24T22:33:44.280Z,100452.88
2022-11-24T22:36:12.475Z,100454.28
2022-11-24T22:38:40.581Z,100453.28
2022-11-24T22:41:15.907Z,100459.38
2022-11-24T22:43:43.467Z,100453.31
2022-11-24T22:46:11.309Z,100452.72
2022-11-24T22:48:38.818Z,100446.38
2022-11-24T22:51:10.683Z,100446.53
2022-11-24T22:53:37.686Z,100442.03
2022-11-24T22:56:06.463Z,100443.28
2022-11-24T22:58:33.533Z,100442.84
2022-11-24T23:01:05.313Z,100442.97
2022-11-24T23:03:33.404Z,100440.50
2022-11-24T23:06:05.872Z,100447.94
2022-11-24T23:08:33.922Z,100452.25
2022-11-24T23:11:20.150Z,100449.00
2022-11-24T23:13:47.097Z,100444.22
2022-11-24T23:16:18.128Z,100438.34
2022-11-24T23:18:49.829Z,100439.13
2022-11-24T23:21:24.610Z,100444.69
2022-11-24T23:23:51.794Z,100440.63
2022-11-24T23:26:20.818Z,100444.47
2022-11-24T23:28:47.623Z,100453.78
2022-11-24T23:31:17.068Z,100445.75
2022-11-24T23:33:44.432Z,100446.84
2022-11-24T23:36:13.644Z,100453.50
2022-11-24T23:38:40.820Z,100448.09
2022-11-24T23:41:13.762Z,100450.19
2022-11-24T23:43:41.618Z,100446.16
2022-11-24T23:46:12.599Z,100443.50
2022-11-24T23:48:39.804Z,100452.03
2022-11-24T23:51:12.253Z,100447.78
2022-11-24T23:53:39.301Z,100453.78
2022-11-24T23:56:06.273Z,100446.84
2022-11-24T23:58:34.353Z,100445.28
